createdAt,value
2017-08-20T00:01:09.563Z,91.20
2017-08-20T00:03:37.074Z,91.10
2017-08-20T00:06:04.572Z,91.00
2017-08-20T00:08:32.077Z,91.00
2017-08-20T00:13:33.320Z,91.30
2017-08-20T00:16:00.811Z,91.00
2017-08-20T00:18:28.313Z,91.10
2017-08-20T00:20:55.804Z,91.20
2017-08-20T00:23:23.296Z,91.60
2017-08-20T00:25:50.776Z,91.70
2017-08-20T00:28:18.271Z,92.10
2017-08-20T00:30:45.744Z,91.80
2017-08-20T00:33:13.252Z,91.80
2017-08-20T00:35:40.733Z,92.10
2017-08-20T00:38:08.232Z,92.10
2017-08-20T00:40:35.712Z,92.10
2017-08-20T00:43:03.223Z,92.00
2017-08-20T00:45:30.744Z,92.10
2017-08-20T00:47:58.224Z,92.50
2017-08-20T00:50:26.511Z,92.60
2017-08-20T00:52:53.995Z,92.50
2017-08-20T00:55:21.492Z,92.40
2017-08-20T00:57:48.976Z,92.50
2017-08-20T01:00:16.472Z,92.70
2017-08-20T01:02:43.957Z,92.80
2017-08-20T01:05:11.453Z,93.00
2017-08-20T01:07:38.945Z,93.10
2017-08-20T01:10:06.443Z,92.90
2017-08-20T01:12:33.920Z,92.80
2017-08-20T01:15:01.418Z,92.80
2017-08-20T01:17:28.903Z,92.90
2017-08-20T01:19:56.404Z,93.30
2017-08-20T01:22:23.888Z,93.20
2017-08-20T01:24:51.388Z,92.80
2017-08-20T01:27:18.872Z,92.60
2017-08-20T01:29:46.371Z,92.60
2017-08-20T01:32:13.847Z,92.30
2017-08-20T01:34:41.349Z,92.40
2017-08-20T01:37:09.588Z,92.90
2017-08-20T01:39:37.092Z,92.90
2017-08-20T01:42:04.573Z,92.90
2017-08-20T01:44:32.089Z,92.90
2017-08-20T01:46:59.596Z,93.30
2017-08-20T01:49:27.076Z,93.10
2017-08-20T01:51:54.571Z,93.00
2017-08-20T01:54:22.056Z,93.10
2017-08-20T01:56:49.551Z,93.20
2017-08-20T01:59:17.800Z,93.40
2017-08-20T02:01:46.210Z,93.20
2017-08-20T02:04:13.696Z,93.20
2017-08-20T02:06:41.191Z,93.10
2017-08-20T02:09:08.685Z,92.90
2017-08-20T02:11:36.193Z,93.00
2017-08-20T02:14:03.674Z,92.90
2017-08-20T02:16:31.184Z,92.90
2017-08-20T02:18:58.664Z,92.90
2017-08-20T02:21:26.165Z,93.00
2017-08-20T02:23:53.645Z,92.80
2017-08-20T02:26:21.144Z,92.70
2017-08-20T02:28:48.623Z,92.50
2017-08-20T02:31:16.887Z,92.50
2017-08-20T02:33:44.380Z,92.50
2017-08-20T02:36:11.880Z,92.40
2017-08-20T02:38:39.468Z,92.30
2017-08-20T02:41:06.967Z,92.20
2017-08-20T02:43:35.212Z,92.00
2017-08-20T02:46:02.737Z,92.00
2017-08-20T02:48:30.252Z,92.10
2017-08-20T02:50:57.736Z,92.10
2017-08-20T02:53:26.025Z,92.20
2017-08-20T02:55:53.511Z,92.10
2017-08-20T02:58:21.011Z,92.60
2017-08-20T03:00:48.588Z,92.70
2017-08-20T03:03:16.083Z,92.80
2017-08-20T03:05:43.572Z,92.40
2017-08-20T03:08:11.075Z,92.40
2017-08-20T03:10:38.559Z,92.30
2017-08-20T03:13:06.060Z,92.30
2017-08-20T03:15:33.545Z,92.30
2017-08-20T03:18:01.044Z,92.40
2017-08-20T03:20:29.288Z,92.50
2017-08-20T03:22:57.551Z,92.60
2017-08-20T03:25:25.037Z,92.80
2017-08-20T03:27:52.539Z,93.10
2017-08-20T03:30:20.790Z,93.60
2017-08-20T03:32:51.299Z,93.90
2017-08-20T03:35:18.780Z,94.30
2017-08-20T03:37:46.280Z,94.50
2017-08-20T03:40:13.765Z,94.30
2017-08-20T03:42:41.259Z,94.40
2017-08-20T03:45:08.745Z,94.60
2017-08-20T03:47:36.227Z,94.40
2017-08-20T03:50:03.728Z,94.30
2017-08-20T03:52:31.212Z,94.20
2017-08-20T03:54:58.711Z,94.20
2017-08-20T03:57:26.186Z,93.90
2017-08-20T03:59:53.691Z,93.90
2017-08-20T04:02:21.166Z,94.20
2017-08-20T04:04:48.660Z,94.40
2017-08-20T04:07:16.143Z,94.50
2017-08-20T04:09:43.639Z,94.40
2017-08-20T04:12:11.120Z,94.60
2017-08-20T04:14:38.621Z,94.80
2017-08-20T04:17:06.095Z,94.60
2017-08-20T04:19:33.601Z,94.30
2017-08-20T04:22:01.092Z,94.00
2017-08-20T04:24:28.600Z,93.90
2017-08-20T04:26:56.849Z,94.20
2017-08-20T04:29:24.348Z,94.20
2017-08-20T04:31:51.832Z,94.30
2017-08-20T04:34:19.324Z,94.50
2017-08-20T04:36:46.808Z,94.60
2017-08-20T04:39:14.318Z,94.70
2017-08-20T04:41:41.800Z,94.70
2017-08-20T04:44:09.295Z,94.80
2017-08-20T04:46:36.774Z,94.70
2017-08-20T04:49:04.275Z,94.70
2017-08-20T04:51:31.758Z,94.50
2017-08-20T04:53:59.236Z,94.50
2017-08-20T04:56:26.743Z,94.60
2017-08-20T04:58:54.228Z,94.70
2017-08-20T05:01:21.727Z,94.70
2017-08-20T05:03:49.213Z,94.90
2017-08-20T05:06:16.717Z,95.00
2017-08-20T05:08:44.197Z,95.00
2017-08-20T05:11:11.705Z,95.10
2017-08-20T05:13:39.183Z,95.40
2017-08-20T05:16:06.684Z,95.40
2017-08-20T05:18:34.169Z,95.50
2017-08-20T05:21:01.677Z,95.40
2017-08-20T05:23:29.161Z,95.20
2017-08-20T05:25:56.657Z,95.50
2017-08-20T05:28:24.141Z,95.30
2017-08-20T05:30:51.646Z,95.50
2017-08-20T05:33:19.128Z,95.90
2017-08-20T05:35:46.622Z,95.90
2017-08-20T05:38:14.095Z,95.80
2017-08-20T05:40:41.592Z,95.90
2017-08-20T05:43:09.072Z,96.20
2017-08-20T05:45:36.583Z,96.20
2017-08-20T05:48:04.064Z,96.20
2017-08-20T05:50:31.567Z,96.00
2017-08-20T05:52:59.061Z,95.80
2017-08-20T05:55:26.552Z,95.60
2017-08-20T05:57:54.047Z,95.90
2017-08-20T06:00:21.528Z,95.80
2017-08-20T06:02:49.028Z,95.90
2017-08-20T06:05:16.524Z,95.80
2017-08-20T06:07:44.025Z,95.60
2017-08-20T06:10:11.513Z,95.40
2017-08-20T06:12:39.015Z,95.40
2017-08-20T06:15:06.498Z,95.20
2017-08-20T06:17:34.470Z,95.00
2017-08-20T06:20:01.947Z,95.10
2017-08-20T06:22:29.471Z,94.80
2017-08-20T06:24:56.948Z,94.50
2017-08-20T06:27:24.448Z,94.60
2017-08-20T06:29:51.928Z,94.70
2017-08-20T06:32:19.436Z,94.40
2017-08-20T06:34:47.684Z,94.00
2017-08-20T06:37:15.188Z,94.00
2017-08-20T06:39:42.664Z,93.70
2017-08-20T06:42:10.928Z,93.10
2017-08-20T06:44:38.417Z,93.10
2017-08-20T06:47:05.934Z,93.40
2017-08-20T06:49:33.407Z,93.20
2017-08-20T06:52:00.888Z,92.80
2017-08-20T06:54:28.389Z,92.80
2017-08-20T06:56:55.870Z,92.30
2017-08-20T06:59:23.368Z,92.40
2017-08-20T07:01:50.845Z,92.10
2017-08-20T07:04:18.351Z,91.80
2017-08-20T07:06:45.835Z,91.60
2017-08-20T07:09:13.343Z,91.20
2017-08-20T07:11:40.835Z,89.90
2017-08-20T07:14:09.100Z,84.80
2017-08-20T07:16:37.347Z,82.80
2017-08-20T07:19:04.852Z,82.70
2017-08-20T07:21:32.331Z,80.60
2017-08-20T07:23:59.840Z,79.90
2017-08-20T07:26:27.324Z,79.80
2017-08-20T07:28:55.585Z,81.70
2017-08-20T07:31:23.057Z,80.80
2017-08-20T07:33:50.552Z,80.40
2017-08-20T07:36:18.028Z,81.90
2017-08-20T07:38:45.532Z,82.10
2017-08-20T07:41:13.012Z,82.50
2017-08-20T07:43:40.515Z,82.40
2017-08-20T07:46:07.997Z,82.20
2017-08-20T07:48:35.485Z,82.10
2017-08-20T07:51:02.989Z,82.50
2017-08-20T07:53:30.467Z,82.40
2017-08-20T07:55:57.959Z,81.60
2017-08-20T07:58:26.203Z,83.00
2017-08-20T08:00:53.705Z,83.00
2017-08-20T08:03:21.188Z,81.80
2017-08-20T08:05:48.684Z,80.60
2017-08-20T08:08:16.160Z,80.70
2017-08-20T08:10:43.665Z,78.50
2017-08-20T08:13:11.148Z,77.40
2017-08-20T08:15:38.644Z,77.80
2017-08-20T08:18:06.132Z,77.10
2017-08-20T08:20:33.630Z,76.20
2017-08-20T08:23:01.112Z,75.60
2017-08-20T08:25:28.615Z,73.70
2017-08-20T08:27:56.103Z,75.20
2017-08-20T08:30:23.595Z,75.00
2017-08-20T08:32:51.081Z,74.00
2017-08-20T08:35:18.575Z,73.90
2017-08-20T08:37:46.055Z,74.30
2017-08-20T08:40:13.556Z,75.40
2017-08-20T08:42:41.035Z,75.70
2017-08-20T08:45:08.544Z,75.10
2017-08-20T08:47:36.048Z,77.00
2017-08-20T08:50:04.321Z,77.10
2017-08-20T08:52:31.811Z,77.10
2017-08-20T08:54:59.292Z,77.00
2017-08-20T08:57:26.799Z,77.10
2017-08-20T08:59:54.285Z,76.20
2017-08-20T09:02:21.787Z,76.20
2017-08-20T09:04:49.268Z,75.20
2017-08-20T09:07:17.544Z,75.30
2017-08-20T09:09:45.028Z,75.30
2017-08-20T09:12:12.533Z,76.20
2017-08-20T09:14:40.013Z,77.60
2017-08-20T09:17:07.524Z,78.40
2017-08-20T09:19:37.605Z,77.60
2017-08-20T09:22:05.872Z,77.90
2017-08-20T09:24:34.115Z,77.60
2017-08-20T09:27:01.617Z,77.50
2017-08-20T09:29:29.095Z,76.80
2017-08-20T09:31:56.595Z,76.30
2017-08-20T09:34:24.071Z,75.80
2017-08-20T09:36:51.576Z,75.30
2017-08-20T09:39:19.064Z,73.40
2017-08-20T09:41:46.564Z,73.90
2017-08-20T09:44:14.058Z,73.90
2017-08-20T09:46:42.337Z,74.00
2017-08-20T09:49:09.819Z,73.90
2017-08-20T09:51:37.307Z,73.50
2017-08-20T09:54:05.579Z,74.80
2017-08-20T09:56:33.057Z,74.80
2017-08-20T09:59:00.563Z,74.50
2017-08-20T10:01:28.808Z,73.80
2017-08-20T10:03:57.067Z,73.30
2017-08-20T10:06:25.320Z,73.20
2017-08-20T10:08:52.821Z,73.10
2017-08-20T10:11:20.311Z,73.20
2017-08-20T10:13:47.809Z,73.10
2017-08-20T10:16:15.296Z,72.50
2017-08-20T10:18:43.569Z,71.70
2017-08-20T10:21:11.820Z,68.10
2017-08-20T10:23:40.089Z,71.70
2017-08-20T10:26:07.576Z,71.10
2017-08-20T10:28:35.075Z,69.60
2017-08-20T10:31:02.552Z,69.00
2017-08-20T10:33:30.051Z,69.00
2017-08-20T10:35:58.295Z,67.70
2017-08-20T10:38:25.806Z,67.00
2017-08-20T10:40:53.289Z,67.10
2017-08-20T10:43:20.787Z,63.80
2017-08-20T10:45:48.263Z,64.70
2017-08-20T10:48:15.755Z,65.80
2017-08-20T10:50:43.237Z,66.70
2017-08-20T10:53:10.759Z,64.30
2017-08-20T10:55:38.304Z,62.90
2017-08-20T10:58:05.783Z,64.30
2017-08-20T11:00:33.279Z,64.90
2017-08-20T11:03:00.767Z,62.10
2017-08-20T11:05:28.258Z,59.70
2017-08-20T11:07:55.741Z,59.20
2017-08-20T11:10:23.236Z,58.60
2017-08-20T11:12:50.713Z,58.20
2017-08-20T11:15:18.212Z,57.60
2017-08-20T11:17:45.712Z,56.70
2017-08-20T11:20:13.208Z,58.30
2017-08-20T11:22:40.691Z,57.70
2017-08-20T11:25:08.188Z,57.70
2017-08-20T11:27:35.675Z,58.30
2017-08-20T11:30:03.176Z,57.40
2017-08-20T11:32:30.662Z,57.20
2017-08-20T11:34:58.172Z,57.60
2017-08-20T11:37:25.684Z,57.70
2017-08-20T11:39:53.952Z,56.30
2017-08-20T11:42:21.435Z,56.30
2017-08-20T11:44:48.936Z,55.90
2017-08-20T11:47:16.424Z,56.50
2017-08-20T11:49:43.916Z,57.50
2017-08-20T11:52:11.428Z,57.60
2017-08-20T11:54:38.936Z,58.60
2017-08-20T11:57:06.412Z,58.00
2017-08-20T11:59:33.887Z,59.30
2017-08-20T12:02:01.380Z,59.70
2017-08-20T12:04:28.864Z,59.90
2017-08-20T12:06:56.360Z,59.50
2017-08-20T12:09:23.840Z,58.20
2017-08-20T12:11:51.348Z,58.60
2017-08-20T12:14:18.831Z,57.30
2017-08-20T12:16:46.335Z,58.80
2017-08-20T12:19:13.810Z,58.30
2017-08-20T12:21:42.068Z,59.20
2017-08-20T12:24:09.544Z,59.20
2017-08-20T12:26:37.040Z,57.60
2017-08-20T12:29:04.520Z,58.40
2017-08-20T12:31:32.015Z,57.90
2017-08-20T12:33:59.487Z,57.70
2017-08-20T12:36:27.755Z,56.90
2017-08-20T12:38:55.235Z,56.90
2017-08-20T12:41:22.740Z,57.00
2017-08-20T12:43:50.217Z,55.90
2017-08-20T12:46:17.715Z,54.80
2017-08-20T12:48:45.955Z,54.20
2017-08-20T12:51:13.462Z,54.20
2017-08-20T12:53:40.935Z,54.20
2017-08-20T12:56:08.456Z,54.70
2017-08-20T12:58:35.940Z,54.10
2017-08-20T13:01:04.187Z,54.10
2017-08-20T13:03:32.452Z,55.20
2017-08-20T13:05:59.941Z,54.80
2017-08-20T13:08:27.448Z,56.60
2017-08-20T13:10:55.696Z,55.40
2017-08-20T13:13:23.996Z,55.40
2017-08-20T13:15:51.545Z,54.70
2017-08-20T13:18:19.060Z,55.60
2017-08-20T13:20:47.307Z,53.80
2017-08-20T13:23:14.806Z,53.70
2017-08-20T13:25:42.304Z,54.50
2017-08-20T13:28:09.804Z,55.10
2017-08-20T13:30:37.281Z,53.10
2017-08-20T13:33:05.543Z,52.80
2017-08-20T13:35:33.789Z,51.80
2017-08-20T13:38:01.303Z,51.70
2017-08-20T13:40:28.789Z,53.10
2017-08-20T13:42:56.301Z,54.50
2017-08-20T13:45:23.771Z,54.70
2017-08-20T13:47:52.040Z,51.70
2017-08-20T13:50:19.510Z,51.70
2017-08-20T13:52:47.012Z,52.20
2017-08-20T13:55:15.256Z,53.30
2017-08-20T13:57:42.777Z,53.30
2017-08-20T14:00:10.255Z,53.60
2017-08-20T14:02:37.736Z,54.50
2017-08-20T14:05:05.237Z,54.60
2017-08-20T14:07:33.533Z,53.70
2017-08-20T14:10:01.087Z,53.70
2017-08-20T14:12:28.750Z,54.40
2017-08-20T14:14:56.259Z,54.70
2017-08-20T14:17:23.745Z,52.30
2017-08-20T14:19:51.252Z,54.40
2017-08-20T14:22:18.742Z,54.80
2017-08-20T14:24:46.637Z,53.70
2017-08-20T14:27:14.107Z,53.80
2017-08-20T14:29:41.612Z,53.50
2017-08-20T14:32:09.856Z,54.90
2017-08-20T14:34:38.115Z,55.50
2017-08-20T14:37:06.360Z,54.50
2017-08-20T14:39:33.872Z,54.50
2017-08-20T14:42:01.352Z,54.50
2017-08-20T14:44:28.852Z,54.20
2017-08-20T14:46:56.327Z,54.50
2017-08-20T14:49:23.842Z,54.20
2017-08-20T14:51:51.317Z,54.80
2017-08-20T14:54:18.817Z,55.20
2017-08-20T14:56:46.304Z,56.10
2017-08-20T14:59:13.807Z,55.90
2017-08-20T15:01:41.292Z,55.40
2017-08-20T15:04:08.789Z,56.60
2017-08-20T15:06:36.271Z,55.70
2017-08-20T15:09:03.766Z,56.10
2017-08-20T15:11:31.268Z,54.80
2017-08-20T15:13:58.748Z,55.40
2017-08-20T15:16:26.244Z,55.70
2017-08-20T15:18:53.719Z,56.30
2017-08-20T15:21:21.228Z,56.20
2017-08-20T15:23:48.711Z,56.00
2017-08-20T15:26:16.224Z,56.90
2017-08-20T15:28:43.704Z,57.60
2017-08-20T15:31:11.199Z,57.70
2017-08-20T15:33:38.677Z,57.50
2017-08-20T15:36:06.174Z,57.20
2017-08-20T15:38:33.665Z,57.90
2017-08-20T15:41:01.167Z,57.90
2017-08-20T15:43:28.668Z,58.20
2017-08-20T15:45:56.166Z,57.50
2017-08-20T15:48:24.412Z,58.80
2017-08-20T15:50:51.912Z,58.70
2017-08-20T15:53:19.399Z,58.70
2017-08-20T15:55:46.896Z,60.10
2017-08-20T15:58:14.368Z,60.90
2017-08-20T16:00:41.864Z,61.20
2017-08-20T16:03:09.344Z,61.50
2017-08-20T16:05:36.847Z,61.10
2017-08-20T16:08:04.347Z,61.10
2017-08-20T16:10:32.617Z,61.20
2017-08-20T16:13:00.123Z,61.10
2017-08-20T16:15:27.611Z,62.90
2017-08-20T16:17:55.103Z,62.00
2017-08-20T16:20:22.583Z,60.60
2017-08-20T16:22:50.080Z,62.20
2017-08-20T16:25:17.565Z,61.30
2017-08-20T16:27:45.067Z,61.10
2017-08-20T16:30:12.556Z,63.00
2017-08-20T16:32:40.056Z,62.10
2017-08-20T16:35:07.539Z,61.90
2017-08-20T16:37:35.825Z,62.10
2017-08-20T16:40:03.304Z,62.00
2017-08-20T16:42:30.852Z,62.80
2017-08-20T16:44:58.332Z,61.40
2017-08-20T16:47:26.591Z,62.60
2017-08-20T16:49:54.866Z,62.40
2017-08-20T16:52:22.391Z,62.30
2017-08-20T16:54:49.994Z,61.20
2017-08-20T16:57:17.565Z,61.90
2017-08-20T16:59:45.040Z,61.70
2017-08-20T17:02:12.541Z,62.80
2017-08-20T17:04:40.032Z,63.00
2017-08-20T17:07:07.512Z,62.20
2017-08-20T17:09:35.008Z,62.70
2017-08-20T17:12:02.499Z,62.00
2017-08-20T17:14:30.004Z,63.00
2017-08-20T17:16:58.814Z,63.70
2017-08-20T17:19:26.458Z,64.50
2017-08-20T17:21:53.944Z,64.90
2017-08-20T17:24:22.213Z,64.50
2017-08-20T17:26:50.452Z,65.40
2017-08-20T17:29:17.944Z,65.30
2017-08-20T17:31:45.423Z,68.90
2017-08-20T17:34:12.916Z,68.90
2017-08-20T17:36:40.405Z,66.20
2017-08-20T17:39:07.907Z,65.00
2017-08-20T17:41:35.388Z,67.60
2017-08-20T17:44:02.895Z,65.90
2017-08-20T17:46:30.375Z,65.60
2017-08-20T17:48:57.881Z,67.50
2017-08-20T17:51:25.360Z,69.50
2017-08-20T17:53:52.860Z,69.50
2017-08-20T17:56:20.340Z,68.60
2017-08-20T17:58:47.855Z,66.40
2017-08-20T18:01:15.345Z,68.00
2017-08-20T18:03:42.823Z,68.30
2017-08-20T18:06:10.325Z,69.40
2017-08-20T18:08:37.801Z,69.20
2017-08-20T18:11:05.304Z,69.10
2017-08-20T18:13:32.785Z,71.20
2017-08-20T18:16:00.291Z,71.00
2017-08-20T18:18:27.772Z,70.70
2017-08-20T18:20:55.277Z,71.20
2017-08-20T18:23:22.760Z,69.80
2017-08-20T18:25:50.257Z,70.00
2017-08-20T18:28:17.757Z,70.70
2017-08-20T18:30:45.264Z,72.00
2017-08-20T18:33:12.744Z,73.10
2017-08-20T18:35:40.239Z,72.20
2017-08-20T18:38:08.496Z,73.20
2017-08-20T18:40:35.996Z,72.50
2017-08-20T18:43:03.475Z,71.70
2017-08-20T18:45:30.976Z,71.30
2017-08-20T18:47:58.460Z,71.00
2017-08-20T18:50:25.957Z,72.10
2017-08-20T18:52:53.441Z,73.40
2017-08-20T18:55:20.959Z,75.70
2017-08-20T18:57:48.446Z,74.20
2017-08-20T19:00:16.691Z,74.60
2017-08-20T19:02:44.197Z,74.50
2017-08-20T19:05:11.684Z,75.00
2017-08-20T19:07:39.177Z,74.80
2017-08-20T19:10:06.665Z,76.00
2017-08-20T19:12:34.940Z,75.10
2017-08-20T19:15:03.179Z,76.20
2017-08-20T19:17:30.679Z,76.20
2017-08-20T19:19:58.156Z,76.10
2017-08-20T19:22:25.652Z,75.90
2017-08-20T19:24:53.137Z,76.20
2017-08-20T19:27:20.633Z,76.80
2017-08-20T19:29:48.111Z,75.80
2017-08-20T19:32:15.608Z,76.80
2017-08-20T19:34:43.092Z,76.40
2017-08-20T19:37:10.596Z,76.40
2017-08-20T19:39:38.085Z,76.30
2017-08-20T19:42:05.596Z,78.10
2017-08-20T19:44:33.081Z,79.00
2017-08-20T19:47:00.575Z,79.10
2017-08-20T19:49:28.056Z,79.00
2017-08-20T19:51:55.551Z,79.10
2017-08-20T19:54:23.032Z,79.00
2017-08-20T19:56:50.503Z,79.40
2017-08-20T19:59:18.008Z,78.80
2017-08-20T20:01:45.489Z,78.90
2017-08-20T20:04:13.927Z,79.20
2017-08-20T20:06:41.408Z,79.50
2017-08-20T20:09:09.671Z,79.80
2017-08-20T20:11:37.924Z,79.90
2017-08-20T20:14:06.204Z,80.30
2017-08-20T20:16:33.680Z,80.20
2017-08-20T20:19:01.184Z,80.20
2017-08-20T20:21:28.767Z,80.40
2017-08-20T20:23:56.265Z,80.70
2017-08-20T20:26:24.524Z,80.00
2017-08-20T20:28:52.023Z,79.80
2017-08-20T20:31:19.504Z,80.40
2017-08-20T20:33:47.773Z,80.70
2017-08-20T20:36:15.255Z,80.70
2017-08-20T20:38:42.767Z,81.20
2017-08-20T20:41:10.243Z,81.50
2017-08-20T20:43:37.740Z,80.90
2017-08-20T20:46:05.979Z,80.10
2017-08-20T20:48:33.482Z,80.00
2017-08-20T20:51:00.960Z,79.70
2017-08-20T20:53:28.461Z,79.40
2017-08-20T20:55:55.936Z,79.90
2017-08-20T20:58:23.420Z,79.60
2017-08-20T21:00:50.920Z,79.20
2017-08-20T21:03:18.400Z,79.20
2017-08-20T21:05:45.909Z,79.20
2017-08-20T21:08:13.391Z,79.20
2017-08-20T21:10:40.883Z,79.30
2017-08-20T21:13:08.372Z,79.50
2017-08-20T21:15:35.883Z,79.80
2017-08-20T21:18:03.360Z,80.00
2017-08-20T21:20:30.856Z,79.80
2017-08-20T21:22:58.341Z,80.50
2017-08-20T21:25:25.849Z,80.00
2017-08-20T21:27:53.332Z,80.10
2017-08-20T21:30:20.839Z,80.20
2017-08-20T21:32:48.315Z,80.30
2017-08-20T21:35:15.890Z,79.80
2017-08-20T21:37:43.372Z,80.10
2017-08-20T21:40:10.872Z,80.20
2017-08-20T21:42:38.353Z,79.90
2017-08-20T21:45:05.853Z,80.20
2017-08-20T21:47:33.345Z,80.00
2017-08-20T21:50:00.848Z,80.40
2017-08-20T21:52:28.323Z,80.60
2017-08-20T21:54:55.819Z,81.50
2017-08-20T21:57:23.300Z,80.80
2017-08-20T21:59:50.779Z,81.20
2017-08-20T22:02:18.280Z,80.90
2017-08-20T22:04:45.755Z,81.20
2017-08-20T22:07:14.019Z,81.00
2017-08-20T22:09:41.496Z,80.90
2017-08-20T22:12:08.999Z,80.80
2017-08-20T22:14:37.243Z,80.50
2017-08-20T22:17:04.740Z,80.30
2017-08-20T22:19:32.220Z,80.60
2017-08-20T22:21:59.720Z,81.10
2017-08-20T22:24:27.198Z,81.30
2017-08-20T22:26:54.700Z,81.50
2017-08-20T22:29:22.183Z,81.70
2017-08-20T22:31:49.685Z,81.80
2017-08-20T22:34:17.169Z,81.70
2017-08-20T22:36:44.666Z,82.10
2017-08-20T22:39:12.147Z,82.70
2017-08-20T22:41:39.647Z,83.30
2017-08-20T22:44:07.127Z,83.40
2017-08-20T22:46:34.627Z,83.40
2017-08-20T22:49:02.119Z,82.80
2017-08-20T22:51:29.621Z,83.00
2017-08-20T22:53:57.100Z,82.80
2017-08-20T22:56:24.579Z,83.10
2017-08-20T22:58:52.843Z,84.00
2017-08-20T23:01:20.323Z,83.90
2017-08-20T23:03:47.817Z,83.80
2017-08-20T23:06:16.077Z,84.40
2017-08-20T23:08:44.335Z,83.20
2017-08-20T23:11:12.579Z,82.70
2017-08-20T23:13:40.075Z,82.50
2017-08-20T23:16:07.559Z,83.70
2017-08-20T23:18:35.050Z,84.40
2017-08-20T23:21:02.532Z,84.30
2017-08-20T23:23:30.039Z,83.90
2017-08-20T23:25:57.515Z,84.00
2017-08-20T23:28:25.008Z,84.20
2017-08-20T23:30:52.484Z,84.20
2017-08-20T23:33:19.988Z,84.40
2017-08-20T23:35:47.476Z,84.40
2017-08-20T23:38:14.977Z,83.90
2017-08-20T23:40:42.452Z,84.00
2017-08-20T23:43:09.948Z,84.20
2017-08-20T23:45:38.189Z,84.00
2017-08-20T23:48:05.686Z,84.00
2017-08-20T23:50:33.163Z,83.10
2017-08-20T23:53:00.656Z,82.60
2017-08-20T23:55:28.131Z,82.10
2017-08-20T23:57:55.648Z,82.10
